createdAt,value
2022-11-22T00:00:25.450Z,9.15
2022-11-22T00:02:52.101Z,8.43
2022-11-22T00:05:18.739Z,10.20
2022-11-22T00:07:45.434Z,9.50
2022-11-22T00:10:13.634Z,9.45
2022-11-22T00:12:40.650Z,9.02
2022-11-22T00:15:07.842Z,8.38
2022-11-22T00:17:34.980Z,8.20
2022-11-22T00:20:01.747Z,8.50
2022-11-22T00:22:28.508Z,9.30
2022-11-22T00:24:55.101Z,8.30
2022-11-22T00:27:21.771Z,7.85
2022-11-22T00:29:48.402Z,8.32
2022-11-22T00:32:15.320Z,7.88
2022-11-22T00:34:42.222Z,7.95
2022-11-22T00:37:09.122Z,7.78
2022-11-22T00:39:35.759Z,8.43
2022-11-22T00:42:02.417Z,7.57
2022-11-22T00:44:29.041Z,7.28
2022-11-22T00:46:55.797Z,8.57
2022-11-22T00:49:22.673Z,6.80
2022-11-22T00:51:49.354Z,7.40
2022-11-22T00:54:15.941Z,6.95
2022-11-22T00:56:42.583Z,6.63
2022-11-22T00:59:09.239Z,6.78
2022-11-22T01:01:36.008Z,7.95
2022-11-22T01:04:02.953Z,6.22
2022-11-22T01:06:29.570Z,6.70
2022-11-22T01:08:56.359Z,6.50
2022-11-22T01:11:23.034Z,6.93
2022-11-22T01:13:49.715Z,5.65
2022-11-22T01:16:16.891Z,5.85
2022-11-22T01:18:43.720Z,6.45
2022-11-22T01:21:10.328Z,6.35
2022-11-22T01:23:37.589Z,5.63
2022-11-22T01:26:08.726Z,5.82
2022-11-22T01:28:36.286Z,5.75
2022-11-22T01:31:03.241Z,6.35
2022-11-22T01:33:29.844Z,5.72
2022-11-22T01:35:58.041Z,5.93
2022-11-22T01:38:24.899Z,5.65
2022-11-22T01:40:51.635Z,5.38
2022-11-22T01:43:23.789Z,4.80
2022-11-22T01:45:55.581Z,4.85
2022-11-22T01:48:50.892Z,5.15
2022-11-22T01:51:23.733Z,4.70
2022-11-22T01:53:51.928Z,5.22
2022-11-22T01:56:20.885Z,5.22
2022-11-22T01:58:53.163Z,4.93
2022-11-22T02:01:20.430Z,5.13
2022-11-22T02:03:51.642Z,4.50
2022-11-22T02:06:19.950Z,4.70
2022-11-22T02:08:59.509Z,4.97
2022-11-22T02:11:32.548Z,4.55
2022-11-22T02:14:00.761Z,4.93
2022-11-22T02:16:28.498Z,4.85
2022-11-22T02:18:55.114Z,4.90
2022-11-22T02:21:22.147Z,5.28
2022-11-22T02:24:29.074Z,4.22
2022-11-22T02:26:55.662Z,5.82
2022-11-22T02:29:22.615Z,5.65
2022-11-22T02:31:49.295Z,4.60
2022-11-22T02:34:16.155Z,5.18
2022-11-22T02:36:46.597Z,5.18
2022-11-22T02:39:16.037Z,5.60
2022-11-22T02:41:43.958Z,5.13
2022-11-22T02:44:11.875Z,5.55
2022-11-22T02:46:50.731Z,5.00
2022-11-22T02:49:22.992Z,5.05
2022-11-22T02:51:50.695Z,5.40
2022-11-22T02:54:17.457Z,4.93
2022-11-22T02:56:44.264Z,4.70
2022-11-22T02:59:11.124Z,4.88
2022-11-22T03:01:38.164Z,4.72
2022-11-22T03:04:04.969Z,5.07
2022-11-22T03:06:31.617Z,4.50
2022-11-22T03:08:58.327Z,3.83
2022-11-22T03:11:25.322Z,3.80
2022-11-22T03:13:52.200Z,3.17
2022-11-22T03:16:18.832Z,3.45
2022-11-22T03:18:45.424Z,3.17
2022-11-22T03:21:12.304Z,3.67
2022-11-22T03:23:39.007Z,3.20
2022-11-22T03:26:10.301Z,3.33
2022-11-22T03:28:36.925Z,3.10
2022-11-22T03:31:07.624Z,3.10
2022-11-22T03:33:35.528Z,2.83
2022-11-22T03:36:03.150Z,2.53
2022-11-22T03:38:30.216Z,3.20
2022-11-22T03:40:56.927Z,3.38
2022-11-22T03:43:23.728Z,2.70
2022-11-22T03:45:50.551Z,3.40
2022-11-22T03:48:17.540Z,2.55
2022-11-22T03:50:44.180Z,2.97
2022-11-22T03:53:11.115Z,2.88
2022-11-22T03:55:37.987Z,3.28
2022-11-22T03:58:05.171Z,2.88
2022-11-22T04:00:32.942Z,2.80
2022-11-22T04:03:01.203Z,2.90
2022-11-22T04:05:27.845Z,2.20
2022-11-22T04:07:57.145Z,3.03
2022-11-22T04:10:24.751Z,2.88
2022-11-22T04:12:51.470Z,2.92
2022-11-22T04:15:18.119Z,2.63
2022-11-22T04:17:45.912Z,2.55
2022-11-22T04:20:46.239Z,2.33
2022-11-22T04:23:19.155Z,3.03
2022-11-22T04:25:51.405Z,2.45
2022-11-22T04:28:35.236Z,2.65
2022-11-22T04:31:46.407Z,2.20
2022-11-22T04:34:13.070Z,3.22
2022-11-22T04:36:39.726Z,2.20
2022-11-22T04:39:06.443Z,3.00
2022-11-22T04:41:33.063Z,2.40
2022-11-22T04:44:18.380Z,2.88
2022-11-22T04:46:45.074Z,2.83
2022-11-22T04:49:11.730Z,2.95
2022-11-22T04:51:57.135Z,2.92
2022-11-22T04:54:23.836Z,2.65
2022-11-22T04:56:50.436Z,2.95
2022-11-22T04:59:17.114Z,2.80
2022-11-22T05:01:43.727Z,2.83
2022-11-22T05:04:10.375Z,2.70
2022-11-22T05:06:37.590Z,2.92
2022-11-22T05:09:04.393Z,3.47
2022-11-22T05:11:30.996Z,3.38
2022-11-22T05:13:57.653Z,3.08
2022-11-22T05:16:24.304Z,3.42
2022-11-22T05:18:59.274Z,4.00
2022-11-22T05:21:27.764Z,4.07
2022-11-22T05:23:54.889Z,3.50
2022-11-22T05:26:22.473Z,2.85
2022-11-22T05:28:49.518Z,3.47
2022-11-22T05:31:22.956Z,3.28
2022-11-22T05:33:51.827Z,3.63
2022-11-22T05:36:19.251Z,3.58
2022-11-22T05:38:45.961Z,3.65
2022-11-22T05:41:14.364Z,3.63
2022-11-22T05:43:41.383Z,3.28
2022-11-22T05:46:25.124Z,4.25
2022-11-22T05:48:53.414Z,3.40
2022-11-22T05:51:22.975Z,3.85
2022-11-22T05:53:49.859Z,3.95
2022-11-22T05:56:22.682Z,3.65
2022-11-22T05:58:50.282Z,3.83
2022-11-22T06:01:22.604Z,4.15
2022-11-22T06:03:50.031Z,4.60
2022-11-22T06:06:17.407Z,3.70
2022-11-22T06:08:47.498Z,4.18
2022-11-22T06:11:22.689Z,4.18
2022-11-22T06:13:55.192Z,3.78
2022-11-22T06:16:22.275Z,5.43
2022-11-22T06:18:49.472Z,4.60
2022-11-22T06:21:23.119Z,3.58
2022-11-22T06:23:51.059Z,3.45
2022-11-22T06:26:22.148Z,3.88
2022-11-22T06:28:49.833Z,4.20
2022-11-22T06:31:22.113Z,4.03
2022-11-22T06:33:49.288Z,3.55
2022-11-22T06:36:18.552Z,3.08
2022-11-22T06:38:45.854Z,4.13
2022-11-22T06:41:14.825Z,3.20
2022-11-22T06:43:48.044Z,3.88
2022-11-22T06:46:16.840Z,3.10
2022-11-22T06:48:43.720Z,2.47
2022-11-22T06:51:17.855Z,3.20
2022-11-22T06:53:48.214Z,2.85
2022-11-22T06:56:21.671Z,2.10
2022-11-22T06:58:49.896Z,3.13
2022-11-22T07:01:28.217Z,2.75
2022-11-22T07:03:58.033Z,3.35
2022-11-22T07:06:31.029Z,3.50
2022-11-22T07:08:58.786Z,3.00
2022-11-22T07:11:28.058Z,4.55
2022-11-22T07:14:00.499Z,2.45
2022-11-22T07:16:32.464Z,2.40
2022-11-22T07:19:00.477Z,2.90
2022-11-22T07:21:27.666Z,4.00
2022-11-22T07:23:55.359Z,3.50
2022-11-22T07:26:24.309Z,3.50
2022-11-22T07:28:51.118Z,2.58
2022-11-22T07:31:18.474Z,3.03
2022-11-22T07:33:45.198Z,2.10
2022-11-22T07:36:13.071Z,2.10
2022-11-22T07:38:40.273Z,2.17
2022-11-22T07:41:08.067Z,2.42
2022-11-22T07:43:35.590Z,2.20
2022-11-22T07:46:03.731Z,2.33
2022-11-22T07:48:30.330Z,2.72
2022-11-22T07:50:57.014Z,2.65
2022-11-22T07:53:24.176Z,2.30
2022-11-22T07:55:50.784Z,1.70
2022-11-22T07:58:17.401Z,2.40
2022-11-22T08:00:44.062Z,2.25
2022-11-22T08:03:14.326Z,2.58
2022-11-22T08:05:43.803Z,2.40
2022-11-22T08:08:10.454Z,3.22
2022-11-22T08:10:37.161Z,2.30
2022-11-22T08:13:05.935Z,2.70
2022-11-22T08:15:32.826Z,2.67
2022-11-22T08:17:59.472Z,2.58
2022-11-22T08:20:26.087Z,3.17
2022-11-22T08:22:52.678Z,2.35
2022-11-22T08:25:19.315Z,2.38
2022-11-22T08:27:45.886Z,2.03
2022-11-22T08:30:12.712Z,2.22
2022-11-22T08:32:39.321Z,2.70
2022-11-22T08:35:06.448Z,3.22
2022-11-22T08:37:33.171Z,2.45
2022-11-22T08:39:59.966Z,2.17
2022-11-22T08:42:27.234Z,2.97
2022-11-22T08:44:53.893Z,2.17
2022-11-22T08:47:20.525Z,2.33
2022-11-22T08:49:47.165Z,1.80
2022-11-22T08:52:13.928Z,2.17
2022-11-22T08:54:40.783Z,2.13
2022-11-22T08:57:07.462Z,2.42
2022-11-22T08:59:34.427Z,2.80
2022-11-22T09:02:01.509Z,2.22
2022-11-22T09:04:28.311Z,2.47
2022-11-22T09:09:41.489Z,3.38
2022-11-22T09:12:08.347Z,2.35
2022-11-22T09:14:35.356Z,3.08
2022-11-22T09:17:02.095Z,2.50
2022-11-22T09:19:29.090Z,2.40
2022-11-22T09:21:56.009Z,2.10
2022-11-22T09:24:22.659Z,2.70
2022-11-22T09:26:49.353Z,3.15
2022-11-22T09:29:16.078Z,2.35
2022-11-22T09:31:43.711Z,1.75
2022-11-22T09:34:10.347Z,1.80
2022-11-22T09:36:37.027Z,2.08
2022-11-22T09:39:04.002Z,2.15
2022-11-22T09:42:00.484Z,1.65
2022-11-22T09:44:45.005Z,1.52
2022-11-22T09:47:25.515Z,1.75
2022-11-22T09:50:10.887Z,1.45
2022-11-22T09:52:43.911Z,1.50
2022-11-22T09:55:37.986Z,2.00
2022-11-22T09:58:09.526Z,1.70
2022-11-22T10:00:36.368Z,1.60
2022-11-22T10:03:14.816Z,1.58
2022-11-22T10:05:53.618Z,1.60
2022-11-22T10:08:28.094Z,1.33
2022-11-22T10:10:57.550Z,1.73
2022-11-22T10:13:35.505Z,1.90
2022-11-22T10:16:23.533Z,1.65
2022-11-22T10:19:03.010Z,1.85
2022-11-22T10:21:30.669Z,1.73
2022-11-22T10:23:57.348Z,1.60
2022-11-22T10:26:32.778Z,1.33
2022-11-22T10:29:08.431Z,1.63
2022-11-22T10:31:44.204Z,1.70
2022-11-22T10:35:05.103Z,1.20
2022-11-22T10:37:48.957Z,1.30
2022-11-22T10:40:40.295Z,1.02
2022-11-22T10:43:25.743Z,1.20
2022-11-22T10:46:16.088Z,1.38
2022-11-22T10:48:56.936Z,1.20
2022-11-22T10:51:54.860Z,1.35
2022-11-22T10:54:33.530Z,1.63
2022-11-22T10:57:07.791Z,1.50
2022-11-22T10:59:46.438Z,1.05
2022-11-22T11:02:40.776Z,1.10
2022-11-22T11:05:12.392Z,1.08
2022-11-22T11:07:45.683Z,0.98
2022-11-22T11:10:27.831Z,1.38
2022-11-22T11:13:16.435Z,1.20
2022-11-22T11:15:52.699Z,1.20
2022-11-22T11:18:28.869Z,1.42
2022-11-22T11:20:55.495Z,1.17
2022-11-22T11:23:22.106Z,1.55
2022-11-22T11:25:49.111Z,1.10
2022-11-22T11:28:28.300Z,1.13
2022-11-22T11:31:09.668Z,1.15
2022-11-22T11:33:41.009Z,1.30
2022-11-22T11:36:24.148Z,1.30
2022-11-22T11:38:54.317Z,1.20
2022-11-22T11:41:38.841Z,1.60
2022-11-22T11:44:25.886Z,1.73
2022-11-22T11:46:52.592Z,2.50
2022-11-22T11:49:27.297Z,2.30
2022-11-22T11:51:56.295Z,2.50
2022-11-22T11:54:41.516Z,1.65
2022-11-22T11:57:15.503Z,1.33
2022-11-22T11:59:46.518Z,1.02
2022-11-22T12:02:35.974Z,1.08
2022-11-22T12:05:06.342Z,1.08
2022-11-22T12:07:35.945Z,1.15
2022-11-22T12:10:38.545Z,1.50
2022-11-22T12:13:24.576Z,1.25
2022-11-22T12:16:01.326Z,1.45
2022-11-22T12:18:43.991Z,1.60
2022-11-22T12:21:17.060Z,1.13
2022-11-22T12:24:26.574Z,1.33
2022-11-22T12:26:47.241Z,1.05
2022-11-22T12:29:15.508Z,1.35
2022-11-22T12:32:15.868Z,1.10
2022-11-22T12:35:03.166Z,1.13
2022-11-22T12:37:34.236Z,0.93
2022-11-22T12:40:12.545Z,1.00
2022-11-22T12:42:50.611Z,0.77
2022-11-22T12:45:42.490Z,1.00
2022-11-22T12:48:15.045Z,1.77
2022-11-22T12:50:49.347Z,0.90
2022-11-22T12:53:22.560Z,0.90
2022-11-22T12:56:09.061Z,0.75
2022-11-22T12:59:12.764Z,1.20
2022-11-22T13:01:44.003Z,0.98
2022-11-22T13:07:35.554Z,0.73
2022-11-22T13:10:07.798Z,0.98
2022-11-22T13:12:40.940Z,1.33
2022-11-22T13:15:13.813Z,1.23
2022-11-22T13:17:40.574Z,1.08
2022-11-22T13:20:16.727Z,1.10
2022-11-22T13:23:13.094Z,1.25
2022-11-22T13:25:58.673Z,1.15
2022-11-22T13:28:29.761Z,1.45
2022-11-22T13:31:12.239Z,0.85
2022-11-22T13:34:00.119Z,0.85
2022-11-22T13:36:29.744Z,0.80
2022-11-22T13:39:02.236Z,1.05
2022-11-22T13:41:34.767Z,0.82
2022-11-22T13:44:23.137Z,0.80
2022-11-22T13:46:49.701Z,0.88
2022-11-22T13:49:48.328Z,1.00
2022-11-22T13:52:15.718Z,1.00
2022-11-22T13:54:48.455Z,0.75
2022-11-22T13:57:37.375Z,0.98
2022-11-22T14:00:13.733Z,0.98
2022-11-22T14:02:44.693Z,0.65
2022-11-22T14:05:42.174Z,0.70
2022-11-22T14:08:28.295Z,0.73
2022-11-22T14:10:54.935Z,0.80
2022-11-22T14:13:48.348Z,0.80
2022-11-22T14:16:30.091Z,0.73
2022-11-22T14:19:17.579Z,0.50
2022-11-22T14:21:52.987Z,0.77
2022-11-22T14:25:00.774Z,0.75
2022-11-22T14:27:46.321Z,0.80
2022-11-22T14:30:21.717Z,0.90
2022-11-22T14:33:03.240Z,0.57
2022-11-22T14:35:37.851Z,1.15
2022-11-22T14:38:07.688Z,1.15
2022-11-22T14:40:39.587Z,0.80
2022-11-22T14:43:36.048Z,0.60
2022-11-22T14:46:37.259Z,0.68
2022-11-22T14:49:03.100Z,0.80
2022-11-22T14:51:32.693Z,0.63
2022-11-22T14:54:13.260Z,0.60
2022-11-22T14:56:43.228Z,0.88
2022-11-22T14:59:44.427Z,1.10
2022-11-22T15:02:23.208Z,0.82
2022-11-22T15:09:11.678Z,0.50
2022-11-22T15:09:11.953Z,0.73
2022-11-22T15:11:42.577Z,0.55
2022-11-22T15:14:33.336Z,0.60
2022-11-22T15:57:24.492Z,1.08
2022-11-22T15:59:54.503Z,0.90
2022-11-22T16:02:25.118Z,0.80
2022-11-22T16:06:05.353Z,1.42
2022-11-22T16:07:48.043Z,1.85
2022-11-22T16:10:38.818Z,2.45
2022-11-22T16:13:11.396Z,3.83
2022-11-22T16:15:38.337Z,2.35
2022-11-22T16:18:14.749Z,2.20
2022-11-22T16:20:42.916Z,2.85
2022-11-22T16:23:09.591Z,3.88
2022-11-22T16:25:38.998Z,3.60
2022-11-22T16:28:24.025Z,5.65
2022-11-22T16:30:52.002Z,6.03
2022-11-22T16:33:18.720Z,5.90
2022-11-22T16:35:45.342Z,8.82
2022-11-22T16:38:11.938Z,4.72
2022-11-22T16:40:43.758Z,7.68
2022-11-22T16:43:15.703Z,7.88
2022-11-22T16:45:42.454Z,6.03
2022-11-22T16:48:37.654Z,7.43
2022-11-22T16:51:15.873Z,5.70
2022-11-22T16:53:44.597Z,3.45
2022-11-22T16:56:26.084Z,1.70
2022-11-22T16:58:54.623Z,1.60
2022-11-22T17:01:24.495Z,0.90
2022-11-22T17:03:53.786Z,0.93
2022-11-22T17:06:26.095Z,0.90
2022-11-22T17:08:54.969Z,0.85
2022-11-22T17:11:26.200Z,1.33
2022-11-22T17:13:53.229Z,1.00
2022-11-22T17:16:19.920Z,1.15
2022-11-22T17:18:47.958Z,1.00
2022-11-22T17:21:37.360Z,0.73
2022-11-22T17:24:19.873Z,1.10
2022-11-22T17:26:46.520Z,0.95
2022-11-22T17:29:29.012Z,2.38
2022-11-22T17:32:00.254Z,1.10
2022-11-22T17:34:26.881Z,1.10
2022-11-22T17:36:53.483Z,0.80
2022-11-22T17:39:20.067Z,0.93
2022-11-22T17:41:49.371Z,0.90
2022-11-22T17:44:17.561Z,1.10
2022-11-22T17:46:44.204Z,1.15
2022-11-22T17:49:16.371Z,0.80
2022-11-22T17:51:43.722Z,1.02
2022-11-22T17:54:10.412Z,1.17
2022-11-22T17:56:37.561Z,0.80
2022-11-22T17:59:04.687Z,1.38
2022-11-22T18:01:31.404Z,1.05
2022-11-22T18:03:58.119Z,0.80
2022-11-22T18:06:26.204Z,0.98
2022-11-22T18:08:52.944Z,1.10
2022-11-22T18:11:19.632Z,1.13
2022-11-22T18:13:46.597Z,0.80
2022-11-22T18:16:15.361Z,1.17
2022-11-22T18:18:56.762Z,1.08
2022-11-22T18:21:28.764Z,1.20
2022-11-22T18:23:57.249Z,1.27
2022-11-22T18:26:40.669Z,1.10
2022-11-22T18:31:55.895Z,1.20
2022-11-22T18:34:22.792Z,1.42
2022-11-22T18:36:55.210Z,1.00
2022-11-22T18:39:22.964Z,1.00
2022-11-22T18:41:49.764Z,1.02
2022-11-22T18:44:16.492Z,0.90
2022-11-22T18:46:43.586Z,1.35
2022-11-22T18:49:10.214Z,1.20
2022-11-22T18:51:36.969Z,1.27
2022-11-22T18:54:03.898Z,1.30
2022-11-22T18:56:30.553Z,1.25
2022-11-22T18:58:57.286Z,1.27
2022-11-22T19:01:24.409Z,1.15
2022-11-22T19:03:51.031Z,1.02
2022-11-22T19:06:19.267Z,1.20
2022-11-22T19:08:47.216Z,1.10
2022-11-22T19:11:15.487Z,1.20
2022-11-22T19:13:43.601Z,1.00
2022-11-22T19:16:13.616Z,1.10
2022-11-22T19:18:43.091Z,1.00
2022-11-22T19:21:16.126Z,0.98
2022-11-22T19:23:43.439Z,1.17
2022-11-22T19:26:12.293Z,1.40
2022-11-22T19:28:38.955Z,1.60
2022-11-22T19:31:17.893Z,1.30
2022-11-22T19:33:45.642Z,1.20
2022-11-22T19:36:20.705Z,1.60
2022-11-22T19:38:48.035Z,1.55
2022-11-22T19:41:16.967Z,1.85
2022-11-22T19:43:44.095Z,1.80
2022-11-22T19:46:11.045Z,1.80
2022-11-22T19:48:42.368Z,1.75
2022-11-22T19:51:13.953Z,1.60
2022-11-22T19:53:41.919Z,2.10
2022-11-22T19:56:19.607Z,1.88
2022-11-22T19:58:51.362Z,1.83
2022-11-22T20:01:18.528Z,1.88
2022-11-22T20:03:45.278Z,1.90
2022-11-22T20:06:13.818Z,1.63
2022-11-22T20:08:40.721Z,1.70
2022-11-22T20:11:19.298Z,2.92
2022-11-22T20:13:48.878Z,2.17
2022-11-22T20:16:20.870Z,2.08
2022-11-22T20:18:48.336Z,1.80
2022-11-22T20:21:20.556Z,2.22
2022-11-22T20:23:50.152Z,2.15
2022-11-22T20:26:17.891Z,1.90
2022-11-22T20:28:46.725Z,2.35
2022-11-22T20:31:16.282Z,2.80
2022-11-22T20:33:45.056Z,2.65
2022-11-22T20:36:14.983Z,2.63
2022-11-22T20:38:43.444Z,2.53
2022-11-22T20:41:12.473Z,1.98
2022-11-22T20:43:39.742Z,1.70
2022-11-22T20:46:12.305Z,1.98
2022-11-22T20:48:40.388Z,1.60
2022-11-22T20:51:09.461Z,2.05
2022-11-22T20:53:36.377Z,1.95
2022-11-22T20:56:03.989Z,1.17
2022-11-22T20:58:31.835Z,1.70
2022-11-22T21:00:59.499Z,1.98
2022-11-22T21:03:27.445Z,2.15
2022-11-22T21:05:55.340Z,2.15
2022-11-22T21:08:22.865Z,1.85
2022-11-22T21:10:49.508Z,2.63
2022-11-22T21:13:16.425Z,2.33
2022-11-22T21:15:43.513Z,2.45
2022-11-22T21:18:25.057Z,2.50
2022-11-22T21:20:52.255Z,1.80
2022-11-22T21:23:18.862Z,2.53
2022-11-22T21:25:46.453Z,1.60
2022-11-22T21:28:13.075Z,1.92
2022-11-22T21:30:40.073Z,2.22
2022-11-22T21:33:06.710Z,2.47
2022-11-22T21:35:33.363Z,2.25
2022-11-22T21:37:59.985Z,2.13
2022-11-22T21:40:26.592Z,2.20
2022-11-22T21:42:53.209Z,1.35
2022-11-22T21:45:19.858Z,1.45
2022-11-22T21:47:48.214Z,1.50
2022-11-22T21:50:15.317Z,1.40
2022-11-22T21:52:42.356Z,1.83
2022-11-22T21:55:09.640Z,1.60
2022-11-22T21:57:36.271Z,1.92
2022-11-22T22:00:05.056Z,2.05
2022-11-22T22:02:32.708Z,1.90
2022-11-22T22:04:59.404Z,1.75
2022-11-22T22:07:50.665Z,1.88
2022-11-22T22:10:14.283Z,1.52
2022-11-22T22:12:41.445Z,1.60
2022-11-22T22:15:12.126Z,1.35
2022-11-22T22:17:39.027Z,1.77
2022-11-22T22:20:06.494Z,1.90
2022-11-22T22:22:36.784Z,1.50
2022-11-22T22:25:06.722Z,1.10
2022-11-22T22:27:34.452Z,1.30
2022-11-22T22:30:01.276Z,1.20
2022-11-22T22:32:28.111Z,1.00
2022-11-22T22:34:54.916Z,1.20
2022-11-22T22:37:21.676Z,1.33
2022-11-22T22:39:49.831Z,1.38
2022-11-22T22:42:18.342Z,1.13
2022-11-22T22:44:44.999Z,1.00
2022-11-22T22:47:11.666Z,1.00
2022-11-22T22:49:38.247Z,1.10
2022-11-22T22:52:05.512Z,1.15
2022-11-22T22:54:32.443Z,1.10
2022-11-22T22:56:59.085Z,1.73
2022-11-22T22:59:26.329Z,1.00
2022-11-22T23:01:52.957Z,1.70
2022-11-22T23:04:19.633Z,0.93
2022-11-22T23:06:46.563Z,1.10
2022-11-22T23:09:13.432Z,1.42
2022-11-22T23:11:58.805Z,1.17
2022-11-22T23:14:27.758Z,1.40
2022-11-22T23:16:57.912Z,1.00
2022-11-22T23:19:26.087Z,1.02
2022-11-22T23:21:53.259Z,1.23
2022-11-22T23:24:19.996Z,1.05
2022-11-22T23:26:46.787Z,1.08
2022-11-22T23:29:13.850Z,1.10
2022-11-22T23:31:40.522Z,1.20
2022-11-22T23:34:07.134Z,0.90
2022-11-22T23:36:38.998Z,1.10
2022-11-22T23:39:07.370Z,0.88
2022-11-22T23:41:34.104Z,1.05
2022-11-22T23:44:00.699Z,0.77
2022-11-22T23:46:28.674Z,0.80
2022-11-22T23:48:57.669Z,1.00
2022-11-22T23:51:25.630Z,0.90
2022-11-22T23:53:56.677Z,0.70
2022-11-22T23:56:23.823Z,0.98
2022-11-22T23:58:51.121Z,1.00
